Yale, Illinois
Current Conditions -  °F | °C
As of 2:15 PM on Friday 19 Dec 2014 (Local Time) from KRSV Reporting Station
Clear Clear  
Wind Chill: 35°   Ceiling: Unl
Heat Index: 35°   Visibility: 10mi
Dew Point: 24°   Wind: 3mph
Humidity: 63%   Direction: 320°NW
Pressure: 30.31"   Gusts: NA
Location:  39.12°N, 88.02°W
Report Text: KRSV 192015Z AUTO 32003KT 10SM CLR 02/M05 A3031 RMK AO2 T00161047
Loading
Personal Weather Stations






























Interactive Weather Map New forecast layout! Learn more

10-Day Weather Forecast

Advertisements
Track Severe Weather on mobile